Terminal Aerodrome Forecast
Issued by NWS

Home | Current Version | Previous Version | Text Only | Print | Product List | Glossary On
Versions: 1 2 3 4 5 6 7 8 9 10 11 12 13 14 15 16 17
000
FTUS43 KGRB 191135
TAFATW
TAF
KATW 191135Z 1912/2012 06004KT P6SM BKN090
     FM191500 10006KT P6SM SCT070
     FM200700 13004KT P6SM SCT100 SCT200
      TEMPO 2008/2012 3SM BR SCT010 BKN100=

USA.gov is the U.S. government's official web portal to all federal, state and local government web resources and services.